Barranca, New Mexico
Current Conditions -  °F | °C
As of 6:35 AM on Saturday 25 Oct 2014 (Local Time) from KLAM Reporting Station
Clear Clear  
Wind Chill: 50°   Ceiling: Unl
Heat Index: 50°   Visibility: 10mi
Dew Point: 19°   Wind: 0mph
Humidity: 29%   Direction: NA
Pressure: 30.38"   Gusts: NA
Location:  36.1557°N, 106.238°W
Report Text: KLAM 251235Z AUTO 00000KT 10SM CLR 10/M07 A3038 RMK AO2 T01021071
Loading
Personal Weather Stations






























Interactive Weather Map
Tropical Storm Tracking
New forecast layout! Learn more

10-Day Weather Forecast

Advertisements
Track Severe Weather on mobile